sensor_id;sensor_type;location;lat;lon;timestamp;pressure;altitude;pressure_sealevel;temperature;humidity
61113;BME280;47184;57.998;56.184;2022-09-03T00:00:36;99724.44;;;9.47;71.52
61113;BME280;47184;57.998;56.184;2022-09-03T00:03:13;99722.44;;;9.41;71.80
61113;BME280;47184;57.998;56.184;2022-09-03T00:05:47;99720.47;;;9.43;71.44
61113;BME280;47184;57.998;56.184;2022-09-03T00:11:26;99722.06;;;9.28;71.46
61113;BME280;47184;57.998;56.184;2022-09-03T00:17:00;99725.19;;;9.23;72.15
61113;BME280;47184;57.998;56.184;2022-09-03T00:19:34;99699.75;;;9.06;72.23
61113;BME280;47184;57.998;56.184;2022-09-03T00:22:09;99721.72;;;9.23;72.11
61113;BME280;47184;57.998;56.184;2022-09-03T00:24:40;99724.81;;;9.18;71.92
61113;BME280;47184;57.998;56.184;2022-09-03T00:27:17;99732.56;;;9.20;72.04
61113;BME280;47184;57.998;56.184;2022-09-03T00:30:04;99727.81;;;9.23;71.42
61113;BME280;47184;57.998;56.184;2022-09-03T00:32:41;99716.06;;;9.09;71.63
61113;BME280;47184;57.998;56.184;2022-09-03T00:35:15;99737.50;;;9.14;71.46
61113;BME280;47184;57.998;56.184;2022-09-03T00:37:43;99721.19;;;9.11;71.87
61113;BME280;47184;57.998;56.184;2022-09-03T00:40:41;99735.00;;;9.13;71.39
61113;BME280;47184;57.998;56.184;2022-09-03T00:43:32;99726.06;;;9.06;71.66
61113;BME280;47184;57.998;56.184;2022-09-03T00:49:52;99739.72;;;9.01;71.68
61113;BME280;47184;57.998;56.184;2022-09-03T00:52:04;99749.59;;;8.99;72.06
61113;BME280;47184;57.998;56.184;2022-09-03T00:59:59;99742.16;;;8.95;71.59
61113;BME280;47184;57.998;56.184;2022-09-03T01:02:52;99693.78;;;8.61;71.58
61113;BME280;47184;57.998;56.184;2022-09-03T01:10:55;99748.41;;;8.93;71.48
61113;BME280;47184;57.998;56.184;2022-09-03T01:13:26;99708.78;;;8.69;71.47
61113;BME280;47184;57.998;56.184;2022-09-03T01:16:17;99673.91;;;8.41;71.46
61113;BME280;47184;57.998;56.184;2022-09-03T01:18:55;99735.66;;;8.81;71.76
61113;BME280;47184;57.998;56.184;2022-09-03T01:21:47;99737.94;;;8.76;72.14
61113;BME280;47184;57.998;56.184;2022-09-03T01:24:33;99735.47;;;8.74;71.89
61113;BME280;47184;57.998;56.184;2022-09-03T01:30:01;99722.22;;;8.58;72.43
61113;BME280;47184;57.998;56.184;2022-09-03T01:33:08;99744.78;;;8.68;72.40
61113;BME280;47184;57.998;56.184;2022-09-03T01:35:36;99737.38;;;8.64;72.58
61113;BME280;47184;57.998;56.184;2022-09-03T01:38:38;99733.88;;;8.55;73.07
61113;BME280;47184;57.998;56.184;2022-09-03T01:46:59;99754.41;;;8.52;73.13
61113;BME280;47184;57.998;56.184;2022-09-03T01:49:38;99745.50;;;8.53;73.46
61113;BME280;47184;57.998;56.184;2022-09-03T01:52:17;99743.03;;;8.51;72.87
61113;BME280;47184;57.998;56.184;2022-09-03T01:57:46;99729.88;;;8.51;72.65
61113;BME280;47184;57.998;56.184;2022-09-03T02:00:16;99742.75;;;8.54;73.00
61113;BME280;47184;57.998;56.184;2022-09-03T02:02:49;99752.69;;;8.68;72.32
61113;BME280;47184;57.998;56.184;2022-09-03T02:05:26;99745.56;;;8.61;72.47
61113;BME280;47184;57.998;56.184;2022-09-03T02:08:06;99749.53;;;8.65;72.82
61113;BME280;47184;57.998;56.184;2022-09-03T02:10:54;99753.03;;;8.65;72.78
61113;BME280;47184;57.998;56.184;2022-09-03T02:14:02;99752.03;;;8.66;72.44
61113;BME280;47184;57.998;56.184;2022-09-03T02:16:32;99752.56;;;8.70;72.71
61113;BME280;47184;57.998;56.184;2022-09-03T02:19:08;99749.75;;;8.72;72.14
61113;BME280;47184;57.998;56.184;2022-09-03T02:21:44;99758.66;;;8.71;72.21
61113;BME280;47184;57.998;56.184;2022-09-03T02:24:12;99758.13;;;8.67;72.65
61113;BME280;47184;57.998;56.184;2022-09-03T02:26:38;99766.38;;;8.72;72.90
61113;BME280;47184;57.998;56.184;2022-09-03T02:29:04;99760.47;;;8.70;72.13
61113;BME280;47184;57.998;56.184;2022-09-03T02:31:30;99771.13;;;8.68;72.53
61113;BME280;47184;57.998;56.184;2022-09-03T02:33:57;99732.00;;;8.48;73.07
61113;BME280;47184;57.998;56.184;2022-09-03T02:36:30;99773.97;;;8.75;72.39
61113;BME280;47184;57.998;56.184;2022-09-03T02:38:57;99767.41;;;8.79;72.04
61113;BME280;47184;57.998;56.184;2022-09-03T02:41:23;99784.03;;;8.80;72.81
61113;BME280;47184;57.998;56.184;2022-09-03T02:46:40;99767.59;;;8.60;72.38
61113;BME280;47184;57.998;56.184;2022-09-03T02:49:08;99795.44;;;8.88;72.18
61113;BME280;47184;57.998;56.184;2022-09-03T02:51:36;99796.94;;;8.91;72.28
61113;BME280;47184;57.998;56.184;2022-09-03T02:54:03;99751.09;;;8.50;72.43
61113;BME280;47184;57.998;56.184;2022-09-03T02:56:29;99811.06;;;8.82;72.35
61113;BME280;47184;57.998;56.184;2022-09-03T02:58:55;99800.88;;;8.87;72.59
61113;BME280;47184;57.998;56.184;2022-09-03T03:01:22;99810.94;;;8.91;72.50
61113;BME280;47184;57.998;56.184;2022-09-03T03:03:48;99766.03;;;8.67;72.17
61113;BME280;47184;57.998;56.184;2022-09-03T03:06:15;99796.84;;;9.01;71.94
61113;BME280;47184;57.998;56.184;2022-09-03T03:08:41;99804.56;;;8.94;71.96
61113;BME280;47184;57.998;56.184;2022-09-03T03:11:08;99795.09;;;8.83;72.33
61113;BME280;47184;57.998;56.184;2022-09-03T03:13:34;99798.13;;;8.97;71.61
61113;BME280;47184;57.998;56.184;2022-09-03T03:16:03;99777.06;;;8.97;71.02
61113;BME280;47184;57.998;56.184;2022-09-03T03:18:33;99722.75;;;8.43;71.67
61113;BME280;47184;57.998;56.184;2022-09-03T03:21:08;99815.38;;;9.17;70.89
61113;BME280;47184;57.998;56.184;2022-09-03T03:23:35;99792.44;;;9.09;71.50
61113;BME280;47184;57.998;56.184;2022-09-03T03:26:10;99781.03;;;9.01;71.85
61113;BME280;47184;57.998;56.184;2022-09-03T03:28:36;99816.09;;;9.27;70.73
61113;BME280;47184;57.998;56.184;2022-09-03T03:31:06;99826.13;;;9.24;70.90
61113;BME280;47184;57.998;56.184;2022-09-03T03:33:33;99794.97;;;9.19;70.32
61113;BME280;47184;57.998;56.184;2022-09-03T03:36:07;99830.56;;;9.57;69.99
61113;BME280;47184;57.998;56.184;2022-09-03T03:38:35;99830.44;;;9.75;70.04
61113;BME280;47184;57.998;56.184;2022-09-03T03:41:25;99838.56;;;9.82;69.48
61113;BME280;47184;57.998;56.184;2022-09-03T03:43:55;99793.16;;;9.54;69.02
61113;BME280;47184;57.998;56.184;2022-09-03T03:46:23;99836.09;;;9.80;69.52
61113;BME280;47184;57.998;56.184;2022-09-03T03:48:50;99839.72;;;9.87;69.19
61113;BME280;47184;57.998;56.184;2022-09-03T03:51:18;99844.66;;;9.82;69.41
61113;BME280;47184;57.998;56.184;2022-09-03T03:53:44;99840.72;;;9.86;68.98
61113;BME280;47184;57.998;56.184;2022-09-03T03:56:13;99803.88;;;9.60;68.90
61113;BME280;47184;57.998;56.184;2022-09-03T03:58:40;99831.47;;;9.82;69.33
61113;BME280;47184;57.998;56.184;2022-09-03T04:03:34;99840.41;;;9.89;69.13
61113;BME280;47184;57.998;56.184;2022-09-03T04:06:01;99847.00;;;9.93;68.61
61113;BME280;47184;57.998;56.184;2022-09-03T04:08:27;99847.22;;;10.00;69.09
61113;BME280;47184;57.998;56.184;2022-09-03T04:10:58;99789.13;;;9.84;68.12
61113;BME280;47184;57.998;56.184;2022-09-03T04:13:31;99856.03;;;10.25;68.14
61113;BME280;47184;57.998;56.184;2022-09-03T04:16:14;99796.25;;;10.00;67.57
61113;BME280;47184;57.998;56.184;2022-09-03T04:18:41;99839.88;;;10.45;67.39
61113;BME280;47184;57.998;56.184;2022-09-03T04:21:12;99853.44;;;10.66;66.55
61113;BME280;47184;57.998;56.184;2022-09-03T04:23:41;99843.00;;;10.89;66.18
61113;BME280;47184;57.998;56.184;2022-09-03T04:26:09;99854.88;;;11.09;65.94
61113;BME280;47184;57.998;56.184;2022-09-03T04:28:35;99849.78;;;11.08;65.18
61113;BME280;47184;57.998;56.184;2022-09-03T04:31:04;99867.13;;;11.10;65.12
61113;BME280;47184;57.998;56.184;2022-09-03T04:33:31;99872.72;;;11.07;64.75
61113;BME280;47184;57.998;56.184;2022-09-03T04:36:09;99859.50;;;11.15;64.53
61113;BME280;47184;57.998;56.184;2022-09-03T04:38:38;99871.50;;;11.43;64.20
61113;BME280;47184;57.998;56.184;2022-09-03T04:41:06;99870.47;;;11.60;63.84
61113;BME280;47184;57.998;56.184;2022-09-03T04:43:33;99882.47;;;11.71;63.26
61113;BME280;47184;57.998;56.184;2022-09-03T04:46:02;99879.84;;;11.71;62.70
61113;BME280;47184;57.998;56.184;2022-09-03T04:48:30;99827.91;;;11.22;62.87
61113;BME280;47184;57.998;56.184;2022-09-03T04:51:07;99900.72;;;11.57;62.16
61113;BME280;47184;57.998;56.184;2022-09-03T04:53:36;99884.34;;;11.62;62.29
61113;BME280;47184;57.998;56.184;2022-09-03T04:56:10;99886.44;;;11.83;61.95
61113;BME280;47184;57.998;56.184;2022-09-03T04:58:37;99871.34;;;11.92;61.51
61113;BME280;47184;57.998;56.184;2022-09-03T05:01:10;99840.94;;;11.79;60.24
61113;BME280;47184;57.998;56.184;2022-09-03T05:03:37;99879.53;;;12.13;60.01
61113;BME280;47184;57.998;56.184;2022-09-03T05:06:03;99883.00;;;12.13;59.74
61113;BME280;47184;57.998;56.184;2022-09-03T05:08:31;99869.16;;;12.03;59.77
61113;BME280;47184;57.998;56.184;2022-09-03T05:10:58;99862.03;;;12.04;59.51
61113;BME280;47184;57.998;56.184;2022-09-03T05:13:25;99789.47;;;11.59;59.56
61113;BME280;47184;57.998;56.184;2022-09-03T05:16:04;99886.41;;;12.22;59.48
61113;BME280;47184;57.998;56.184;2022-09-03T05:18:31;99858.06;;;12.00;59.63
61113;BME280;47184;57.998;56.184;2022-09-03T05:20:59;99837.09;;;11.98;59.16
61113;BME280;47184;57.998;56.184;2022-09-03T05:23:26;99819.88;;;12.02;58.92
61113;BME280;47184;57.998;56.184;2022-09-03T05:26:00;99889.97;;;12.83;58.08
61113;BME280;47184;57.998;56.184;2022-09-03T05:28:27;99887.59;;;13.11;57.03
61113;BME280;47184;57.998;56.184;2022-09-03T05:30:59;99864.72;;;12.73;56.63
61113;BME280;47184;57.998;56.184;2022-09-03T05:33:25;99860.91;;;12.52;57.39
61113;BME280;47184;57.998;56.184;2022-09-03T05:36:02;99884.38;;;12.55;57.37
61113;BME280;47184;57.998;56.184;2022-09-03T05:38:29;99887.28;;;12.14;57.19
61113;BME280;47184;57.998;56.184;2022-09-03T05:41:00;99889.06;;;12.22;57.01
61113;BME280;47184;57.998;56.184;2022-09-03T05:43:27;99890.75;;;12.15;57.13
61113;BME280;47184;57.998;56.184;2022-09-03T05:46:01;99882.53;;;12.10;56.98
61113;BME280;47184;57.998;56.184;2022-09-03T05:48:32;99872.91;;;12.17;56.43
61113;BME280;47184;57.998;56.184;2022-09-03T05:51:00;99893.09;;;12.41;55.80
61113;BME280;47184;57.998;56.184;2022-09-03T05:53:27;99911.94;;;12.46;55.54
61113;BME280;47184;57.998;56.184;2022-09-03T05:55:58;99901.09;;;12.33;55.16
61113;BME280;47184;57.998;56.184;2022-09-03T05:58:30;99907.94;;;12.50;55.05
61113;BME280;47184;57.998;56.184;2022-09-03T06:00:56;99900.41;;;12.62;54.96
61113;BME280;47184;57.998;56.184;2022-09-03T06:03:22;99873.59;;;12.57;54.51
61113;BME280;47184;57.998;56.184;2022-09-03T06:05:52;99856.91;;;12.33;54.49
61113;BME280;47184;57.998;56.184;2022-09-03T06:08:20;99907.28;;;12.71;54.16
61113;BME280;47184;57.998;56.184;2022-09-03T06:10:46;99913.81;;;12.60;54.65
61113;BME280;47184;57.998;56.184;2022-09-03T06:13:13;99926.97;;;12.54;54.82
61113;BME280;47184;57.998;56.184;2022-09-03T06:15:39;99825.88;;;11.96;54.79
61113;BME280;47184;57.998;56.184;2022-09-03T06:18:05;99907.13;;;12.50;54.85
61113;BME280;47184;57.998;56.184;2022-09-03T06:20:31;99912.94;;;12.45;54.71
61113;BME280;47184;57.998;56.184;2022-09-03T06:22:57;99899.56;;;12.38;54.41
61113;BME280;47184;57.998;56.184;2022-09-03T06:25:23;99910.63;;;12.42;54.00
61113;BME280;47184;57.998;56.184;2022-09-03T06:27:50;99874.00;;;12.23;53.94
61113;BME280;47184;57.998;56.184;2022-09-03T06:30:16;99916.28;;;12.39;54.08
61113;BME280;47184;57.998;56.184;2022-09-03T06:32:43;99830.13;;;11.58;54.13
61113;BME280;47184;57.998;56.184;2022-09-03T06:35:09;99909.06;;;11.94;54.59
61113;BME280;47184;57.998;56.184;2022-09-03T06:37:39;99910.72;;;11.86;54.91
61113;BME280;47184;57.998;56.184;2022-09-03T06:40:06;99916.00;;;11.95;54.71
61113;BME280;47184;57.998;56.184;2022-09-03T06:42:39;99877.72;;;11.66;55.18
61113;BME280;47184;57.998;56.184;2022-09-03T06:45:07;99918.31;;;11.98;55.23
61113;BME280;47184;57.998;56.184;2022-09-03T06:47:34;99926.22;;;12.06;55.32
61113;BME280;47184;57.998;56.184;2022-09-03T06:50:00;99901.13;;;11.94;54.77
61113;BME280;47184;57.998;56.184;2022-09-03T06:52:28;99875.84;;;11.83;54.79
61113;BME280;47184;57.998;56.184;2022-09-03T06:54:54;99930.34;;;12.39;54.71
61113;BME280;47184;57.998;56.184;2022-09-03T06:57:20;99926.72;;;12.32;54.10
61113;BME280;47184;57.998;56.184;2022-09-03T06:59:46;99941.44;;;12.35;54.67
61113;BME280;47184;57.998;56.184;2022-09-03T07:02:14;99944.13;;;12.27;54.25
61113;BME280;47184;57.998;56.184;2022-09-03T07:04:40;99953.50;;;12.46;54.07
61113;BME280;47184;57.998;56.184;2022-09-03T07:07:06;99909.81;;;12.10;54.04
61113;BME280;47184;57.998;56.184;2022-09-03T07:09:38;99951.53;;;12.39;53.69
61113;BME280;47184;57.998;56.184;2022-09-03T07:12:04;99877.63;;;11.90;53.85
61113;BME280;47184;57.998;56.184;2022-09-03T07:14:31;99883.72;;;11.99;53.86
61113;BME280;47184;57.998;56.184;2022-09-03T07:16:57;99953.78;;;12.51;53.58
61113;BME280;47184;57.998;56.184;2022-09-03T07:19:23;99906.25;;;11.79;53.91
61113;BME280;47184;57.998;56.184;2022-09-03T07:21:49;99937.47;;;12.00;53.80
61113;BME280;47184;57.998;56.184;2022-09-03T07:24:17;99937.63;;;12.06;53.53
61113;BME280;47184;57.998;56.184;2022-09-03T07:26:44;99951.00;;;12.13;53.61
61113;BME280;47184;57.998;56.184;2022-09-03T07:29:14;99881.72;;;11.54;53.54
61113;BME280;47184;57.998;56.184;2022-09-03T07:31:42;99953.78;;;12.11;53.65
61113;BME280;47184;57.998;56.184;2022-09-03T07:34:10;99955.66;;;12.03;53.82
61113;BME280;47184;57.998;56.184;2022-09-03T07:36:42;99951.34;;;12.10;53.46
61113;BME280;47184;57.998;56.184;2022-09-03T07:39:11;99968.78;;;12.27;53.66
61113;BME280;47184;57.998;56.184;2022-09-03T07:41:38;99958.88;;;12.29;53.50
61113;BME280;47184;57.998;56.184;2022-09-03T07:44:07;99953.25;;;12.24;53.70
61113;BME280;47184;57.998;56.184;2022-09-03T07:46:35;99965.19;;;12.51;53.46
61113;BME280;47184;57.998;56.184;2022-09-03T07:49:03;99971.06;;;12.70;53.22
61113;BME280;47184;57.998;56.184;2022-09-03T07:51:32;99952.03;;;12.66;53.20
61113;BME280;47184;57.998;56.184;2022-09-03T07:54:00;99965.19;;;12.82;53.09
61113;BME280;47184;57.998;56.184;2022-09-03T07:56:27;99955.63;;;12.73;52.82
61113;BME280;47184;57.998;56.184;2022-09-03T07:58:57;99969.00;;;12.80;53.15
61113;BME280;47184;57.998;56.184;2022-09-03T08:01:25;99963.16;;;12.61;53.25
61113;BME280;47184;57.998;56.184;2022-09-03T08:03:54;99971.31;;;12.52;53.68
61113;BME280;47184;57.998;56.184;2022-09-03T08:06:24;99969.50;;;12.52;53.71
61113;BME280;47184;57.998;56.184;2022-09-03T08:08:58;99970.31;;;12.53;53.69
61113;BME280;47184;57.998;56.184;2022-09-03T08:11:27;99990.03;;;12.11;54.71
61113;BME280;47184;57.998;56.184;2022-09-03T08:13:58;99970.13;;;12.23;54.71
61113;BME280;47184;57.998;56.184;2022-09-03T08:16:30;99979.97;;;12.06;55.23
61113;BME280;47184;57.998;56.184;2022-09-03T08:18:57;99953.13;;;12.18;54.84
61113;BME280;47184;57.998;56.184;2022-09-03T08:21:24;99993.59;;;12.34;54.79
61113;BME280;47184;57.998;56.184;2022-09-03T08:23:52;100003.00;;;12.45;54.70
61113;BME280;47184;57.998;56.184;2022-09-03T08:26:20;99957.88;;;12.30;54.22
61113;BME280;47184;57.998;56.184;2022-09-03T08:28:47;99992.13;;;12.63;54.35
61113;BME280;47184;57.998;56.184;2022-09-03T08:31:21;99956.28;;;12.44;53.95
61113;BME280;47184;57.998;56.184;2022-09-03T08:33:49;99982.59;;;12.77;53.94
61113;BME280;47184;57.998;56.184;2022-09-03T08:36:27;99980.13;;;12.75;53.96
61113;BME280;47184;57.998;56.184;2022-09-03T08:38:56;99992.31;;;12.84;53.54
61113;BME280;47184;57.998;56.184;2022-09-03T08:44:49;99994.59;;;12.64;53.73
61113;BME280;47184;57.998;56.184;2022-09-03T08:50:07;99998.97;;;12.80;52.89
61113;BME280;47184;57.998;56.184;2022-09-03T08:55:21;99994.72;;;13.25;51.32
61113;BME280;47184;57.998;56.184;2022-09-03T08:57:51;99997.63;;;13.53;51.02
61113;BME280;47184;57.998;56.184;2022-09-03T09:00:19;100006.25;;;13.70;50.27
61113;BME280;47184;57.998;56.184;2022-09-03T09:03:15;100006.53;;;13.75;50.49
61113;BME280;47184;57.998;56.184;2022-09-03T09:05:53;99815.72;;;12.54;49.98
61113;BME280;47184;57.998;56.184;2022-09-03T09:08:34;100011.53;;;13.55;50.18
61113;BME280;47184;57.998;56.184;2022-09-03T09:11:12;100000.59;;;13.35;50.88
61113;BME280;47184;57.998;56.184;2022-09-03T09:19:56;100010.31;;;13.20;50.94
61113;BME280;47184;57.998;56.184;2022-09-03T09:22:34;99988.03;;;13.06;51.00
61113;BME280;47184;57.998;56.184;2022-09-03T09:25:07;100019.03;;;13.29;51.33
61113;BME280;47184;57.998;56.184;2022-09-03T09:28:03;100001.75;;;12.87;51.94
61113;BME280;47184;57.998;56.184;2022-09-03T09:30:32;99950.94;;;12.83;51.51
61113;BME280;47184;57.998;56.184;2022-09-03T09:32:58;99940.19;;;12.77;51.25
61113;BME280;47184;57.998;56.184;2022-09-03T09:35:28;99978.06;;;13.08;50.81
61113;BME280;47184;57.998;56.184;2022-09-03T09:37:56;99926.69;;;13.32;50.72
61113;BME280;47184;57.998;56.184;2022-09-03T09:40:29;100022.13;;;14.37;49.16
61113;BME280;47184;57.998;56.184;2022-09-03T09:45:46;99972.16;;;14.48;48.35
61113;BME280;47184;57.998;56.184;2022-09-03T09:51:09;100015.34;;;14.50;47.79
61113;BME280;47184;57.998;56.184;2022-09-03T09:53:35;100035.75;;;14.20;47.92
61113;BME280;47184;57.998;56.184;2022-09-03T09:56:02;100024.94;;;13.92;49.36
61113;BME280;47184;57.998;56.184;2022-09-03T09:58:29;100019.66;;;14.06;48.79
61113;BME280;47184;57.998;56.184;2022-09-03T10:01:00;100007.03;;;14.08;49.23
61113;BME280;47184;57.998;56.184;2022-09-03T10:03:31;99996.38;;;13.79;48.88
61113;BME280;47184;57.998;56.184;2022-09-03T10:06:05;100019.28;;;13.80;49.46
61113;BME280;47184;57.998;56.184;2022-09-03T10:09:14;100013.03;;;13.87;49.30
61113;BME280;47184;57.998;56.184;2022-09-03T10:14:26;100031.91;;;14.22;48.47
61113;BME280;47184;57.998;56.184;2022-09-03T10:17:10;100023.59;;;14.55;48.27
61113;BME280;47184;57.998;56.184;2022-09-03T10:19:56;100025.56;;;14.68;47.18
61113;BME280;47184;57.998;56.184;2022-09-03T10:22:48;100028.53;;;14.58;47.11
61113;BME280;47184;57.998;56.184;2022-09-03T10:25:16;100027.06;;;14.55;47.69
61113;BME280;47184;57.998;56.184;2022-09-03T10:27:45;100028.72;;;14.42;47.51
61113;BME280;47184;57.998;56.184;2022-09-03T10:30:12;100030.72;;;14.10;47.96
61113;BME280;47184;57.998;56.184;2022-09-03T10:32:44;100042.06;;;14.04;47.84
61113;BME280;47184;57.998;56.184;2022-09-03T10:35:45;100026.06;;;13.97;48.14
61113;BME280;47184;57.998;56.184;2022-09-03T10:41:00;100029.72;;;14.26;48.09
61113;BME280;47184;57.998;56.184;2022-09-03T10:46:37;100034.66;;;14.44;47.65
61113;BME280;47184;57.998;56.184;2022-09-03T10:55:12;100038.97;;;14.59;46.45
61113;BME280;47184;57.998;56.184;2022-09-03T11:00:24;100026.72;;;14.29;46.56
61113;BME280;47184;57.998;56.184;2022-09-03T11:06:04;100041.09;;;14.05;47.02
61113;BME280;47184;57.998;56.184;2022-09-03T11:08:47;100037.41;;;14.06;47.53
61113;BME280;47184;57.998;56.184;2022-09-03T11:11:23;100005.25;;;13.86;47.16
61113;BME280;47184;57.998;56.184;2022-09-03T11:13:58;99987.88;;;13.69;47.25
61113;BME280;47184;57.998;56.184;2022-09-03T11:16:27;100052.34;;;13.92;47.59
61113;BME280;47184;57.998;56.184;2022-09-03T11:19:05;100016.84;;;13.70;48.10
61113;BME280;47184;57.998;56.184;2022-09-03T11:21:35;100044.19;;;13.94;47.94
61113;BME280;47184;57.998;56.184;2022-09-03T11:24:08;100048.13;;;14.12;47.48
61113;BME280;47184;57.998;56.184;2022-09-03T11:26:40;100005.63;;;13.83;47.65
61113;BME280;47184;57.998;56.184;2022-09-03T11:29:32;100028.72;;;13.97;47.67
61113;BME280;47184;57.998;56.184;2022-09-03T11:32:07;100044.56;;;14.05;47.82
61113;BME280;47184;57.998;56.184;2022-09-03T11:34:50;100032.28;;;14.19;47.72
61113;BME280;47184;57.998;56.184;2022-09-03T11:37:22;100039.44;;;14.33;47.79
61113;BME280;47184;57.998;56.184;2022-09-03T11:40:34;100051.41;;;14.15;48.25
61113;BME280;47184;57.998;56.184;2022-09-03T11:43:27;100049.59;;;14.15;47.91
61113;BME280;47184;57.998;56.184;2022-09-03T11:48:54;100046.03;;;14.37;47.58
61113;BME280;47184;57.998;56.184;2022-09-03T11:51:33;100057.09;;;15.07;46.87
61113;BME280;47184;57.998;56.184;2022-09-03T11:56:40;99973.13;;;15.97;43.79
61113;BME280;47184;57.998;56.184;2022-09-03T12:01:46;100048.53;;;15.54;43.84
61113;BME280;47184;57.998;56.184;2022-09-03T12:04:19;100004.19;;;14.76;44.95
61113;BME280;47184;57.998;56.184;2022-09-03T12:12:59;100069.00;;;14.75;46.38
61113;BME280;47184;57.998;56.184;2022-09-03T12:18:13;99992.56;;;15.41;45.62
61113;BME280;47184;57.998;56.184;2022-09-03T12:25:58;100036.69;;;18.28;40.89
61113;BME280;47184;57.998;56.184;2022-09-03T12:28:28;100038.78;;;18.20;40.06
61113;BME280;47184;57.998;56.184;2022-09-03T12:31:05;100022.03;;;18.51;39.93
61113;BME280;47184;57.998;56.184;2022-09-03T12:33:33;100028.63;;;18.93;39.26
61113;BME280;47184;57.998;56.184;2022-09-03T12:36:00;100019.69;;;18.68;38.88
61113;BME280;47184;57.998;56.184;2022-09-03T12:38:28;100034.69;;;18.04;39.62
61113;BME280;47184;57.998;56.184;2022-09-03T12:40:54;100030.78;;;17.14;40.97
61113;BME280;47184;57.998;56.184;2022-09-03T12:43:26;100043.16;;;16.73;41.92
61113;BME280;47184;57.998;56.184;2022-09-03T12:45:53;100041.78;;;16.08;42.75
61113;BME280;47184;57.998;56.184;2022-09-03T12:48:19;100044.09;;;15.61;43.59
61113;BME280;47184;57.998;56.184;2022-09-03T12:50:47;100056.16;;;15.15;44.73
61113;BME280;47184;57.998;56.184;2022-09-03T12:53:23;100054.81;;;15.04;45.11
61113;BME280;47184;57.998;56.184;2022-09-03T12:55:52;100053.75;;;14.98;45.47
61113;BME280;47184;57.998;56.184;2022-09-03T13:06:28;100050.34;;;14.90;46.23
61113;BME280;47184;57.998;56.184;2022-09-03T13:09:00;100055.78;;;15.39;46.06
61113;BME280;47184;57.998;56.184;2022-09-03T13:11:31;100054.31;;;16.42;44.02
61113;BME280;47184;57.998;56.184;2022-09-03T13:14:03;100040.25;;;16.68;42.88
61113;BME280;47184;57.998;56.184;2022-09-03T13:16:46;100041.91;;;16.69;42.82
61113;BME280;47184;57.998;56.184;2022-09-03T13:25:54;100050.66;;;15.38;45.14
61113;BME280;47184;57.998;56.184;2022-09-03T13:28:45;100045.03;;;14.90;46.05
61113;BME280;47184;57.998;56.184;2022-09-03T13:31:35;100042.91;;;14.49;47.00
61113;BME280;47184;57.998;56.184;2022-09-03T13:34:16;100047.97;;;14.29;47.84
61113;BME280;47184;57.998;56.184;2022-09-03T13:37:34;99999.09;;;13.71;48.66
61113;BME280;47184;57.998;56.184;2022-09-03T13:39:57;100063.63;;;13.71;49.76
61113;BME280;47184;57.998;56.184;2022-09-03T13:47:44;100074.75;;;11.62;61.98
61113;BME280;47184;57.998;56.184;2022-09-03T13:50:41;100055.03;;;10.99;63.07
61113;BME280;47184;57.998;56.184;2022-09-03T13:55:53;100073.16;;;10.78;64.52
61113;BME280;47184;57.998;56.184;2022-09-03T13:58:44;100066.88;;;10.79;65.04
61113;BME280;47184;57.998;56.184;2022-09-03T14:01:25;100075.25;;;10.66;65.42
61113;BME280;47184;57.998;56.184;2022-09-03T14:03:59;100068.81;;;10.69;65.25
61113;BME280;47184;57.998;56.184;2022-09-03T14:06:53;100057.72;;;10.65;65.22
61113;BME280;47184;57.998;56.184;2022-09-03T14:09:53;100069.53;;;10.79;65.03
61113;BME280;47184;57.998;56.184;2022-09-03T14:12:33;100085.38;;;10.87;64.02
61113;BME280;47184;57.998;56.184;2022-09-03T14:15:21;100072.00;;;10.88;63.63
61113;BME280;47184;57.998;56.184;2022-09-03T14:18:12;100076.31;;;10.98;63.34
61113;BME280;47184;57.998;56.184;2022-09-03T14:21:00;100081.16;;;11.10;63.50
61113;BME280;47184;57.998;56.184;2022-09-03T14:23:45;100092.19;;;11.06;63.43
61113;BME280;47184;57.998;56.184;2022-09-03T14:26:26;100048.69;;;10.68;64.09
61113;BME280;47184;57.998;56.184;2022-09-03T14:29:13;100099.66;;;11.10;63.99
61113;BME280;47184;57.998;56.184;2022-09-03T14:34:36;100088.28;;;11.34;64.29
61113;BME280;47184;57.998;56.184;2022-09-03T14:39:55;100089.41;;;10.65;67.32
61113;BME280;47184;57.998;56.184;2022-09-03T14:42:35;100084.75;;;10.51;66.56
61113;BME280;47184;57.998;56.184;2022-09-03T14:51:07;100096.84;;;10.27;68.53
61113;BME280;47184;57.998;56.184;2022-09-03T14:53:50;100100.56;;;10.16;69.56
61113;BME280;47184;57.998;56.184;2022-09-03T15:10:54;100115.13;;;10.03;72.26
61113;BME280;47184;57.998;56.184;2022-09-03T15:13:44;100113.63;;;10.00;71.95
61113;BME280;47184;57.998;56.184;2022-09-03T15:16:24;100117.41;;;9.98;72.23
61113;BME280;47184;57.998;56.184;2022-09-03T15:19:17;100121.84;;;9.97;72.35
61113;BME280;47184;57.998;56.184;2022-09-03T15:30:48;100126.59;;;9.93;73.95
61113;BME280;47184;57.998;56.184;2022-09-03T15:36:26;100118.53;;;9.95;73.91
61113;BME280;47184;57.998;56.184;2022-09-03T15:39:09;100120.69;;;10.00;73.57
61113;BME280;47184;57.998;56.184;2022-09-03T15:41:55;100131.53;;;10.14;73.87
61113;BME280;47184;57.998;56.184;2022-09-03T15:44:25;100129.41;;;10.18;73.60
61113;BME280;47184;57.998;56.184;2022-09-03T15:49:46;100139.22;;;10.26;73.15
61113;BME280;47184;57.998;56.184;2022-09-03T15:55:07;100142.91;;;10.33;73.99
61113;BME280;47184;57.998;56.184;2022-09-03T16:00:30;100154.88;;;10.45;72.83
61113;BME280;47184;57.998;56.184;2022-09-03T16:03:08;100147.03;;;10.35;72.87
61113;BME280;47184;57.998;56.184;2022-09-03T16:05:56;100143.75;;;10.33;73.37
61113;BME280;47184;57.998;56.184;2022-09-03T16:08:37;100149.88;;;10.42;72.83
61113;BME280;47184;57.998;56.184;2022-09-03T16:16:22;100143.00;;;10.49;72.57